ROMMA est une association bénévole à but non lucratif. Votre soutien est indispensable : ADHERER à ROMMA ou FAIRE un DON

Chambon - (38, Isère)

Oisans (2460 m)   Longitude: 06° 10' 42" E   Latitude: 45° 01' 32" N Station partenaire n°803
 

Détail journalier du     <<     >>

Température Humidité Vent Dir Rafale Dir. rafale Neige 1 Neige 2
Heure (°C) (%) (km/h) (km/h) (cm) (cm)
01:00 -5.8992ESE6S195240
02:00 -5.8932ESE4ESE195240
03:00 -6.5911SE4SE195240
04:00 -5.9841E3E195240
05:00 -6.5851E4OSO195240
06:00 -6.5841ESE4SE195240
07:00 -5.7762E3E195240
08:00 -5.4702E6S195240
09:00 -2.3592S5S195240
10:00 1.3381SSE3SSE194240
11:00 1.6371N4S195239
12:00 0.7432NE5NE195240
13:00 -1.2555NNE10NNE195240
14:00 1.2463NNE10SO194239
15:00 -0.4589SO15SO195240
16:00 -1.06410SO14SO195240
17:00 -1.0688SO13SO195240
18:00 -1.27711SO17SO195240
19:00 -2.59012SO18SO195240
20:00 -2.89511SO17SO195240
21:00 -3.1965OSO9O194240
22:00 -3.21004NNE11NNE194240
23:00 -3.4992ENE8SO194240
minuit -3.5991NNE4NNE194240

Graphique du 09-04-2019

 

Serveur OMMA